Time;durP1;ratioP1;P1;durP2;ratioP2;P2;SDS_P1;SDS_P2;PMS_P1;PMS_P2;Temp;Humidity;BMP_temperature;BMP_pressure;BME280_temperature;BME280_humidity;BME280_pressure;Samples;Min_cycle;Max_cycle;Signal;HPM_P1;HPM_P2
2023/05/07 00:00:57;;;;;;;30.23;26.83;;;;;21.30;100509.00;;;;2063752;28;20218;-72
2023/05/07 00:01:57;;;;;;;30.40;26.20;;;;;21.30;100514.00;;;;2063255;28;20218;-72
2023/05/07 00:02:57;;;;;;;29.23;25.47;;;;;21.30;100519.00;;;;2059108;28;20574;-72
2023/05/07 00:03:58;;;;;;;28.87;25.50;;;;;21.30;100519.00;;;;2054550;28;20703;-72
2023/05/07 00:04:58;;;;;;;30.13;25.67;;;;;21.30;100516.00;;;;2062516;28;20215;-72
2023/05/07 00:05:58;;;;;;;29.10;25.90;;;;;21.30;100519.00;;;;2065657;28;20216;-72
2023/05/07 00:06:59;;;;;;;29.03;25.53;;;;;21.30;100512.00;;;;2062954;28;20239;-72
2023/05/07 00:07:59;;;;;;;29.70;26.10;;;;;21.30;100508.00;;;;2060631;28;20208;-72
2023/05/07 00:09:00;;;;;;;26.73;23.73;;;;;21.30;100517.00;;;;2055597;28;20551;-72
2023/05/07 00:10:01;;;;;;;28.73;25.10;;;;;21.30;100516.00;;;;2064511;28;20211;-72
2023/05/07 00:11:02;;;;;;;26.50;23.70;;;;;21.30;100513.00;;;;2062807;28;20750;-72
2023/05/07 00:12:02;;;;;;;26.57;22.93;;;;;21.30;100520.00;;;;2063926;28;20454;-72
2023/05/07 00:13:02;;;;;;;26.80;23.13;;;;;21.30;100515.00;;;;2061487;28;20688;-72
2023/05/07 00:14:03;;;;;;;29.90;25.33;;;;;21.30;100510.00;;;;2050187;28;20239;-72
2023/05/07 00:15:03;;;;;;;29.50;26.30;;;;;21.30;100513.00;;;;2059324;28;20254;-72
2023/05/07 00:16:04;;;;;;;26.40;23.60;;;;;21.30;100510.00;;;;2062888;28;20211;-72
2023/05/07 00:17:04;;;;;;;26.70;23.80;;;;;21.30;100511.00;;;;2059857;28;20704;-72
2023/05/07 00:18:05;;;;;;;29.67;24.53;;;;;21.30;100509.00;;;;2059040;28;20208;-72
2023/05/07 00:19:05;;;;;;;28.60;25.60;;;;;21.30;100513.00;;;;2050256;28;20236;-72
2023/05/07 00:20:06;;;;;;;26.23;23.47;;;;;21.30;100511.00;;;;2058016;28;20215;-72
2023/05/07 00:21:06;;;;;;;28.25;23.63;;;;;21.30;100520.00;;;;2058979;28;20212;-72
2023/05/07 00:22:07;;;;;;;26.27;23.43;;;;;21.30;100512.00;;;;2063563;28;20219;-72
2023/05/07 00:23:08;;;;;;;29.90;25.90;;;;;21.30;100518.00;;;;2054266;28;20213;-72
2023/05/07 00:24:08;;;;;;;27.07;23.40;;;;;21.30;100506.00;;;;2057009;28;20999;-72
2023/05/07 00:25:10;;;;;;;24.03;21.37;;;;;21.30;100513.00;;;;2063588;28;20517;-72
2023/05/07 00:26:10;;;;;;;27.45;24.23;;;;;21.30;100514.00;;;;2055150;28;20242;-72
2023/05/07 00:27:10;;;;;;;25.90;23.10;;;;;21.30;100505.00;;;;2055203;28;20200;-72
2023/05/07 00:28:11;;;;;;;24.17;21.60;;;;;21.30;100513.00;;;;2052804;28;20207;-72
2023/05/07 00:29:11;;;;;;;26.50;23.50;;;;;21.30;100509.00;;;;2059320;28;20211;-72
2023/05/07 00:30:12;;;;;;;27.47;23.37;;;;;21.30;100506.00;;;;2066156;28;20217;-72
2023/05/07 00:31:12;;;;;;;22.40;20.00;;;;;21.30;100513.00;;;;2073062;28;20213;-72
2023/05/07 00:32:12;;;;;;;26.97;23.50;;;;;21.30;100510.00;;;;2070589;28;20261;-72
2023/05/07 00:33:13;;;;;;;27.30;23.37;;;;;21.30;100505.00;;;;2050634;28;20214;-72
2023/05/07 00:34:13;;;;;;;27.77;23.20;;;;;21.30;100506.00;;;;2059084;28;20204;-72
2023/05/07 00:35:13;;;;;;;26.23;23.33;;;;;21.30;100496.00;;;;2057954;28;20211;-72
2023/05/07 00:36:13;;;;;;;25.27;22.57;;;;;21.30;100500.00;;;;2065248;28;20214;-72
2023/05/07 00:37:14;;;;;;;24.10;21.20;;;;;21.30;100508.00;;;;2065842;28;20202;-72
2023/05/07 00:38:14;;;;;;;25.03;22.43;;;;;21.30;100498.00;;;;2050907;28;20218;-72
2023/05/07 00:39:15;;;;;;;24.17;21.67;;;;;21.30;100499.00;;;;2058482;28;20214;-72
2023/05/07 00:40:15;;;;;;;22.67;20.27;;;;;21.30;100503.00;;;;2063047;28;20211;-72
2023/05/07 00:41:15;;;;;;;25.63;22.20;;;;;21.30;100497.00;;;;2053243;28;20226;-72
2023/05/07 00:42:16;;;;;;;24.97;22.30;;;;;21.30;100493.00;;;;2059652;28;20613;-72
2023/05/07 00:43:16;;;;;;;24.37;21.73;;;;;21.30;100494.00;;;;2049874;28;20204;-72
2023/05/07 00:44:18;;;;;;;26.77;22.00;;;;;21.30;100493.00;;;;2060129;28;20207;-72
2023/05/07 00:45:18;;;;;;;25.00;21.60;;;;;21.30;100494.00;;;;2063757;28;20211;-72
2023/05/07 00:46:20;;;;;;;25.63;22.30;;;;;21.30;100497.00;;;;2055632;28;20250;-72
2023/05/07 00:47:20;;;;;;;24.55;21.10;;;;;21.30;100487.00;;;;2063059;28;20222;-72
2023/05/07 00:48:20;;;;;;;24.10;21.07;;;;;21.30;100497.00;;;;2044924;28;20204;-72
2023/05/07 00:49:21;;;;;;;25.63;20.93;;;;;21.30;100498.00;;;;2062020;28;20469;-72
2023/05/07 00:50:22;;;;;;;24.63;21.57;;;;;21.20;100491.00;;;;2069670;28;20218;-72
2023/05/07 00:51:23;;;;;;;24.13;20.70;;;;;21.30;100497.00;;;;2063282;28;20221;-72
2023/05/07 00:52:23;;;;;;;25.80;21.92;;;;;21.30;100486.00;;;;2059327;28;20442;-72
2023/05/07 00:53:24;;;;;;;24.30;20.77;;;;;21.30;100496.00;;;;2042746;28;20675;-72
2023/05/07 00:54:24;;;;;;;24.47;21.50;;;;;21.30;100498.00;;;;2054965;28;20263;-72
2023/05/07 00:55:25;;;;;;;23.50;20.30;;;;;21.30;100488.00;;;;2061321;28;20291;-72
2023/05/07 00:56:25;;;;;;;22.40;20.00;;;;;21.30;100486.00;;;;2062871;28;20681;-72
2023/05/07 00:57:25;;;;;;;23.00;20.43;;;;;21.20;100491.00;;;;2068325;28;20248;-72
2023/05/07 00:58:26;;;;;;;22.73;20.33;;;;;21.30;100485.00;;;;2053127;28;20574;-72
2023/05/07 00:59:26;;;;;;;23.13;20.83;;;;;21.20;100486.00;;;;2062383;28;20261;-72
2023/05/07 01:00:27;;;;;;;22.70;19.07;;;;;21.20;100490.00;;;;2055117;28;20713;-72
2023/05/07 01:01:27;;;;;;;21.77;19.57;;;;;21.20;100492.00;;;;2056926;28;20211;-72
2023/05/07 01:02:27;;;;;;;20.77;18.53;;;;;21.20;100477.00;;;;2062543;28;20281;-72
2023/05/07 01:03:28;;;;;;;22.00;19.70;;;;;21.20;100487.00;;;;2053150;28;20290;-72
2023/05/07 01:04:28;;;;;;;21.43;18.63;;;;;21.20;100491.00;;;;2053779;28;20234;-72
2023/05/07 01:05:28;;;;;;;22.00;19.63;;;;;21.20;100490.00;;;;2067510;28;20705;-72
2023/05/07 01:06:29;;;;;;;23.60;20.03;;;;;21.20;100492.00;;;;2067517;28;21306;-72
2023/05/07 01:07:29;;;;;;;21.50;19.20;;;;;21.20;100483.00;;;;2071184;28;20780;-72
2023/05/07 01:08:30;;;;;;;21.10;18.83;;;;;21.30;100483.00;;;;2051102;28;20702;-72
2023/05/07 01:09:30;;;;;;;21.00;18.77;;;;;21.30;100496.00;;;;2062803;28;20242;-72
2023/05/07 01:10:30;;;;;;;23.27;19.93;;;;;21.20;100494.00;;;;2069201;28;20222;-72
2023/05/07 01:11:31;;;;;;;20.13;18.03;;;;;21.20;100488.00;;;;2046823;28;20220;-72
2023/05/07 01:12:31;;;;;;;20.80;18.30;;;;;21.20;100495.00;;;;2038934;29;20307;-73
2023/05/07 01:13:31;;;;;;;22.20;19.57;;;;;21.20;100495.00;;;;2037052;28;21220;-73
2023/05/07 01:14:32;;;;;;;20.57;18.30;;;;;21.20;100502.00;;;;2054148;28;20222;-73
2023/05/07 01:15:33;;;;;;;20.17;18.02;;;;;21.20;100490.00;;;;2068647;28;20222;-73
2023/05/07 01:16:33;;;;;;;20.67;18.53;;;;;21.20;100491.00;;;;2066313;28;20212;-73
2023/05/07 01:17:34;;;;;;;19.43;17.43;;;;;21.20;100488.00;;;;2063122;28;20211;-73
2023/05/07 01:18:35;;;;;;;20.58;18.35;;;;;21.20;100494.00;;;;2044003;28;20239;-73
2023/05/07 01:19:36;;;;;;;20.57;17.70;;;;;21.20;100497.00;;;;2063785;28;20211;-73
2023/05/07 01:20:36;;;;;;;20.83;18.10;;;;;21.20;100488.00;;;;2059024;28;20573;-73
2023/05/07 01:21:36;;;;;;;19.27;17.20;;;;;21.20;100493.00;;;;2063571;28;20317;-73
2023/05/07 01:22:37;;;;;;;20.80;18.60;;;;;21.20;100488.00;;;;2054581;28;20287;-73
2023/05/07 01:23:38;;;;;;;19.53;17.43;;;;;21.20;100492.00;;;;2053060;28;20222;-73
2023/05/07 01:24:38;;;;;;;20.43;18.23;;;;;21.20;100488.00;;;;2065398;28;20521;-73
2023/05/07 01:25:38;;;;;;;19.87;16.77;;;;;21.20;100496.00;;;;2062205;28;20214;-73
2023/05/07 01:26:40;;;;;;;19.27;17.27;;;;;21.20;100493.00;;;;2061440;28;20222;-73
2023/05/07 01:27:40;;;;;;;19.67;17.60;;;;;21.20;100495.00;;;;2062688;28;20210;-73
2023/05/07 01:28:41;;;;;;;20.77;18.03;;;;;21.20;100500.00;;;;2052195;28;20230;-73
2023/05/07 01:29:41;;;;;;;19.50;17.40;;;;;21.20;100489.00;;;;2061499;28;20247;-73
2023/05/07 01:30:42;;;;;;;19.20;17.13;;;;;21.20;100497.00;;;;2062495;28;20233;-73
2023/05/07 01:31:42;;;;;;;18.47;16.53;;;;;21.20;100492.00;;;;2060224;28;20214;-73
2023/05/07 01:32:53;;;;;;;19.60;17.50;;;;;21.20;100492.00;;;;2054568;28;20238;-73
2023/05/07 01:33:53;;;;;;;18.35;16.42;;;;;21.20;100487.00;;;;2046480;28;20599;-73
2023/05/07 01:34:54;;;;;;;18.70;16.57;;;;;21.20;100486.00;;;;2054383;28;20319;-73
2023/05/07 01:35:54;;;;;;;19.10;17.10;;;;;21.20;100490.00;;;;2062910;28;22337;-73
2023/05/07 01:36:55;;;;;;;17.83;16.03;;;;;21.20;100487.00;;;;2061845;28;20727;-73
2023/05/07 01:37:55;;;;;;;16.95;15.15;;;;;21.20;100493.00;;;;2062701;28;20310;-73
2023/05/07 01:38:57;;;;;;;19.73;17.63;;;;;21.20;100492.00;;;;2044378;28;20219;-73
2023/05/07 01:39:58;;;;;;;18.20;16.17;;;;;21.20;100494.00;;;;2062634;28;20210;-73
2023/05/07 01:40:58;;;;;;;20.50;17.37;;;;;21.20;100492.00;;;;2061567;28;20218;-73
2023/05/07 01:41:59;;;;;;;18.03;16.13;;;;;21.20;100480.00;;;;2058108;28;20223;-73
2023/05/07 01:42:59;;;;;;;18.55;16.50;;;;;21.20;100493.00;;;;2066119;28;20732;-73
2023/05/07 01:44:00;;;;;;;17.70;15.63;;;;;21.20;100491.00;;;;2044428;28;20223;-73
2023/05/07 01:45:00;;;;;;;18.17;15.90;;;;;21.20;100487.00;;;;2042172;28;20816;-72
2023/05/07 01:46:01;;;;;;;17.97;16.07;;;;;21.20;100492.00;;;;2054043;28;20226;-72
2023/05/07 01:47:02;;;;;;;17.83;15.93;;;;;21.20;100491.00;;;;2067588;28;20235;-72
2023/05/07 01:48:02;;;;;;;18.67;15.87;;;;;21.20;100490.00;;;;2059147;28;20290;-72
2023/05/07 01:49:03;;;;;;;17.03;14.83;;;;;21.20;100488.00;;;;2040070;28;20223;-72
2023/05/07 01:50:10;;;;;;;17.97;15.50;;;;;21.20;100496.00;;;;2062552;28;20222;-72
2023/05/07 01:51:10;;;;;;;17.85;15.90;;;;;21.20;100489.00;;;;2063376;28;20725;-72
2023/05/07 01:52:11;;;;;;;16.43;14.70;;;;;21.20;100488.00;;;;2058747;28;20306;-72
2023/05/07 01:53:11;;;;;;;17.90;15.90;;;;;21.20;100482.00;;;;2053038;28;20293;-72
2023/05/07 01:54:12;;;;;;;17.87;16.00;;;;;21.20;100484.00;;;;2062687;28;20552;-72
2023/05/07 01:55:13;;;;;;;16.10;13.87;;;;;21.20;100481.00;;;;2059649;28;20231;-72
2023/05/07 01:56:13;;;;;;;15.63;14.00;;;;;21.20;100477.00;;;;2061988;28;20239;-72
2023/05/07 01:57:13;;;;;;;16.87;15.07;;;;;21.20;100486.00;;;;2067045;28;20461;-72
2023/05/07 01:58:14;;;;;;;16.33;14.30;;;;;21.20;100479.00;;;;2055428;28;20229;-72
2023/05/07 01:59:14;;;;;;;16.83;15.10;;;;;21.20;100485.00;;;;2060394;28;20243;-72
2023/05/07 02:00:15;;;;;;;16.40;14.70;;;;;21.20;100484.00;;;;2057907;28;20222;-72
2023/05/07 02:01:15;;;;;;;15.83;14.13;;;;;21.20;100461.00;;;;2061660;28;20224;-72
2023/05/07 02:02:15;;;;;;;14.77;13.17;;;;;21.20;100477.00;;;;2062117;28;20254;-72
2023/05/07 02:03:16;;;;;;;16.00;14.40;;;;;21.20;100480.00;;;;2050617;28;20232;-72
2023/05/07 02:04:17;;;;;;;15.65;13.90;;;;;21.20;100481.00;;;;2067378;28;20231;-72
2023/05/07 02:05:17;;;;;;;15.53;13.93;;;;;21.20;100487.00;;;;2064347;28;20214;-72
2023/05/07 02:06:17;;;;;;;15.93;14.23;;;;;21.20;100482.00;;;;2059215;28;20219;-72
2023/05/07 02:07:18;;;;;;;16.37;14.50;;;;;21.20;100480.00;;;;2059341;28;20220;-73
2023/05/07 02:08:18;;;;;;;16.27;14.50;;;;;21.20;100484.00;;;;2052983;28;20303;-73
2023/05/07 02:09:19;;;;;;;14.83;13.37;;;;;21.20;100476.00;;;;2061300;28;20229;-73
2023/05/07 02:10:19;;;;;;;16.20;14.17;;;;;21.20;100489.00;;;;2068402;28;20450;-73
2023/05/07 02:11:20;;;;;;;15.20;13.60;;;;;21.20;100485.00;;;;2058111;28;20585;-73
2023/05/07 02:12:20;;;;;;;15.37;13.77;;;;;21.20;100483.00;;;;2054431;28;20302;-73
2023/05/07 02:13:22;;;;;;;15.20;13.43;;;;;21.20;100488.00;;;;2045383;28;20211;-73
2023/05/07 02:14:22;;;;;;;15.52;13.88;;;;;21.20;100488.00;;;;2052913;28;20227;-73
2023/05/07 02:15:22;;;;;;;15.20;13.60;;;;;21.20;100484.00;;;;2059399;28;20219;-73
2023/05/07 02:16:23;;;;;;;14.73;13.23;;;;;21.20;100480.00;;;;2060711;28;20219;-73
2023/05/07 02:17:24;;;;;;;15.30;13.70;;;;;21.20;100482.00;;;;2063693;28;20290;-73
2023/05/07 02:18:24;;;;;;;14.40;12.90;;;;;21.20;100481.00;;;;2058879;28;20725;-73
2023/05/07 02:19:25;;;;;;;17.87;13.80;;;;;21.20;100479.00;;;;2063302;28;20203;-73
2023/05/07 02:20:25;;;;;;;15.77;14.07;;;;;21.20;100481.00;;;;2064743;28;20824;-73
2023/05/07 02:21:25;;;;;;;14.60;13.10;;;;;21.20;100474.00;;;;2063375;28;20634;-73
2023/05/07 02:22:26;;;;;;;14.17;11.90;;;;;21.20;100476.00;;;;2064998;28;20203;-73
2023/05/07 02:23:26;;;;;;;14.73;12.83;;;;;21.20;100472.00;;;;2060547;28;20246;-73
2023/05/07 02:24:26;;;;;;;14.80;13.00;;;;;21.20;100483.00;;;;2064396;28;20238;-73
2023/05/07 02:25:27;;;;;;;14.50;13.00;;;;;21.20;100476.00;;;;2064843;28;20586;-73
2023/05/07 02:26:27;;;;;;;13.93;12.53;;;;;21.20;100478.00;;;;2064833;28;20616;-73
2023/05/07 02:27:27;;;;;;;14.73;13.17;;;;;21.20;100473.00;;;;2057843;28;20250;-73
2023/05/07 02:28:28;;;;;;;13.93;12.43;;;;;21.20;100476.00;;;;2049194;28;20649;-73
2023/05/07 02:29:28;;;;;;;12.77;11.50;;;;;21.20;100479.00;;;;2063689;28;20638;-73
2023/05/07 02:30:28;;;;;;;13.63;12.20;;;;;21.10;100484.00;;;;2058600;28;20581;-73
2023/05/07 02:31:29;;;;;;;14.53;13.03;;;;;21.20;100473.00;;;;2063170;28;20221;-72
2023/05/07 02:32:29;;;;;;;15.30;13.03;;;;;21.20;100476.00;;;;2063589;28;20210;-72
2023/05/07 02:33:30;;;;;;;13.30;11.90;;;;;21.20;100476.00;;;;2050658;28;20305;-72
2023/05/07 02:34:30;;;;;;;11.50;10.30;;;;;21.20;100481.00;;;;2066627;28;20220;-72
2023/05/07 02:35:31;;;;;;;12.53;11.23;;;;;21.20;100475.00;;;;2059215;28;20493;-72
2023/05/07 02:36:31;;;;;;;13.03;11.73;;;;;21.20;100474.00;;;;2056684;28;20223;-72
2023/05/07 02:37:31;;;;;;;15.50;12.00;;;;;21.20;100476.00;;;;2061350;28;20249;-72
2023/05/07 02:38:32;;;;;;;13.37;11.97;;;;;21.20;100476.00;;;;2053939;28;20219;-72
2023/05/07 02:39:32;;;;;;;12.60;11.30;;;;;21.10;100476.00;;;;2069137;28;20218;-72
2023/05/07 02:40:38;;;;;;;13.10;11.80;;;;;21.10;100474.00;;;;2057864;28;20247;-72
2023/05/07 02:41:39;;;;;;;12.50;11.20;;;;;21.10;100472.00;;;;2056737;28;20611;-72
2023/05/07 02:42:39;;;;;;;12.60;11.30;;;;;21.20;100469.00;;;;2067050;28;20214;-72
2023/05/07 02:43:40;;;;;;;13.17;11.77;;;;;21.20;100470.00;;;;2061634;28;20229;-72
2023/05/07 02:44:40;;;;;;;12.70;11.37;;;;;21.10;100476.00;;;;2064498;28;20755;-73
2023/05/07 02:45:40;;;;;;;13.20;11.73;;;;;21.20;100469.00;;;;2063839;28;20670;-73
2023/05/07 02:46:41;;;;;;;13.63;11.50;;;;;21.10;100474.00;;;;2063833;28;20638;-73
2023/05/07 02:47:41;;;;;;;12.20;10.97;;;;;21.20;100476.00;;;;2063570;28;20207;-72
2023/05/07 02:48:41;;;;;;;12.60;11.30;;;;;21.20;100473.00;;;;2047974;28;20278;-72
2023/05/07 02:49:42;;;;;;;13.23;11.77;;;;;21.20;100483.00;;;;2064030;28;20226;-72
2023/05/07 02:50:42;;;;;;;11.27;10.03;;;;;21.10;100480.00;;;;2066230;28;20210;-72
2023/05/07 02:51:42;;;;;;;12.33;11.10;;;;;21.20;100484.00;;;;2056622;28;20238;-72
2023/05/07 02:52:43;;;;;;;12.50;11.30;;;;;21.20;100473.00;;;;2063253;28;20211;-72
2023/05/07 02:53:43;;;;;;;11.83;10.23;;;;;21.10;100472.00;;;;2049163;28;20219;-72
2023/05/07 02:54:43;;;;;;;12.50;11.20;;;;;21.20;100473.00;;;;2063293;28;20214;-72
2023/05/07 02:55:44;;;;;;;11.97;10.77;;;;;21.20;100478.00;;;;2063838;28;20226;-72
2023/05/07 02:56:44;;;;;;;11.80;10.60;;;;;21.10;100471.00;;;;2064252;28;20199;-72
2023/05/07 02:57:44;;;;;;;12.40;10.60;;;;;21.20;100470.00;;;;2063914;28;20230;-72
2023/05/07 02:58:45;;;;;;;11.83;10.53;;;;;21.10;100471.00;;;;2055839;28;20690;-72
2023/05/07 02:59:46;;;;;;;12.47;10.67;;;;;21.10;100468.00;;;;2060205;28;20214;-72
2023/05/07 03:00:46;;;;;;;12.50;11.20;;;;;21.10;100464.00;;;;2067370;28;20222;-72
2023/05/07 03:01:46;;;;;;;11.13;10.03;;;;;21.10;100469.00;;;;2057550;28;20211;-72
2023/05/07 03:02:47;;;;;;;11.33;10.13;;;;;21.10;100460.00;;;;2056562;28;20216;-72
2023/05/07 03:03:47;;;;;;;11.60;10.40;;;;;21.10;100468.00;;;;2053987;28;20214;-72
2023/05/07 03:04:47;;;;;;;12.20;10.83;;;;;21.10;100469.00;;;;2069369;28;20309;-72
2023/05/07 03:05:48;;;;;;;11.03;9.93;;;;;21.10;100468.00;;;;2069645;28;20740;-72
2023/05/07 03:06:48;;;;;;;12.00;10.77;;;;;21.10;100472.00;;;;2061663;28;20305;-72
2023/05/07 03:07:49;;;;;;;11.00;9.60;;;;;21.10;100466.00;;;;2056557;28;20239;-72
2023/05/07 03:08:49;;;;;;;11.57;10.20;;;;;21.10;100474.00;;;;2054740;28;20226;-72
2023/05/07 03:09:49;;;;;;;11.40;10.20;;;;;21.10;100469.00;;;;2065708;28;20583;-72
2023/05/07 03:10:50;;;;;;;11.40;10.20;;;;;21.10;100470.00;;;;2070845;28;20210;-72
2023/05/07 03:11:50;;;;;;;11.30;10.20;;;;;21.10;100469.00;;;;2063510;28;20215;-72
2023/05/07 03:12:50;;;;;;;12.30;10.63;;;;;21.10;100474.00;;;;2062836;28;20217;-72
2023/05/07 03:13:51;;;;;;;11.53;10.33;;;;;21.10;100473.00;;;;2053726;28;20218;-72
2023/05/07 03:14:51;;;;;;;11.93;10.50;;;;;21.10;100481.00;;;;2063794;28;20677;-73
2023/05/07 03:15:51;;;;;;;12.43;10.17;;;;;21.10;100476.00;;;;2067206;28;20218;-73
2023/05/07 03:16:52;;;;;;;9.73;8.73;;;;;21.10;100472.00;;;;2064706;28;20241;-73
2023/05/07 03:17:52;;;;;;;10.50;8.67;;;;;21.10;100479.00;;;;2057019;28;20223;-73
2023/05/07 03:18:52;;;;;;;10.93;9.73;;;;;21.10;100482.00;;;;2051848;28;20293;-73
2023/05/07 03:19:53;;;;;;;10.23;9.23;;;;;21.10;100475.00;;;;2060379;28;20210;-72
2023/05/07 03:20:53;;;;;;;11.37;10.07;;;;;21.10;100483.00;;;;2059809;28;20250;-72
2023/05/07 03:21:53;;;;;;;10.27;9.27;;;;;21.10;100474.00;;;;2069354;28;20280;-72
2023/05/07 03:22:54;;;;;;;11.30;9.93;;;;;21.10;100475.00;;;;2060506;28;20223;-72
2023/05/07 03:23:54;;;;;;;11.20;9.33;;;;;21.10;100477.00;;;;2045696;28;20274;-72
2023/05/07 03:24:54;;;;;;;10.87;9.77;;;;;21.10;100485.00;;;;2065245;28;20214;-72
2023/05/07 03:25:55;;;;;;;9.50;8.60;;;;;21.10;100481.00;;;;2063673;28;20786;-72
2023/05/07 03:26:55;;;;;;;9.87;8.60;;;;;21.10;100479.00;;;;2067738;28;20728;-72
2023/05/07 03:27:56;;;;;;;10.20;9.10;;;;;21.10;100482.00;;;;2064028;28;20674;-72
2023/05/07 03:28:56;;;;;;;9.60;8.60;;;;;21.10;100481.00;;;;2053476;28;20646;-72
2023/05/07 03:29:57;;;;;;;8.93;8.03;;;;;21.10;100490.00;;;;2062967;28;20896;-72
2023/05/07 03:30:57;;;;;;;10.10;8.90;;;;;21.10;100489.00;;;;2061004;28;20676;-72
2023/05/07 03:31:57;;;;;;;8.90;8.00;;;;;21.10;100483.00;;;;2068618;28;20675;-72
2023/05/07 03:32:58;;;;;;;9.80;8.80;;;;;21.10;100482.00;;;;2066420;28;20266;-72
2023/05/07 03:33:58;;;;;;;9.90;8.90;;;;;21.10;100476.00;;;;2048418;28;20320;-72
2023/05/07 03:34:58;;;;;;;10.67;9.03;;;;;21.10;100476.00;;;;2063685;28;20233;-72
2023/05/07 03:35:59;;;;;;;9.87;8.87;;;;;21.10;100481.00;;;;2065211;28;20678;-72
2023/05/07 03:36:59;;;;;;;10.03;9.00;;;;;21.10;100470.00;;;;2063553;28;20227;-72
2023/05/07 03:38:01;;;;;;;9.47;8.57;;;;;21.10;100476.00;;;;2068143;28;20277;-72
2023/05/07 03:39:01;;;;;;;9.57;8.57;;;;;21.10;100479.00;;;;2053604;28;20664;-72
2023/05/07 03:40:02;;;;;;;8.80;7.90;;;;;21.10;100479.00;;;;2061045;28;20244;-72
2023/05/07 03:41:02;;;;;;;8.47;7.67;;;;;21.10;100478.00;;;;2059370;28;20220;-72
2023/05/07 03:42:02;;;;;;;9.70;8.70;;;;;21.10;100477.00;;;;2045857;28;20573;-72
2023/05/07 03:43:03;;;;;;;9.90;8.90;;;;;21.10;100479.00;;;;2057267;28;20677;-72
2023/05/07 03:44:03;;;;;;;9.20;8.27;;;;;21.10;100477.00;;;;2050263;28;20298;-72
2023/05/07 03:45:04;;;;;;;9.30;8.40;;;;;21.10;100470.00;;;;2064550;28;20223;-72
2023/05/07 03:46:04;;;;;;;8.10;7.30;;;;;21.10;100474.00;;;;2065520;28;20214;-73
2023/05/07 03:47:04;;;;;;;8.73;7.83;;;;;21.10;100473.00;;;;2062465;28;20250;-73
2023/05/07 03:48:05;;;;;;;8.20;7.40;;;;;21.10;100468.00;;;;2060147;28;20218;-73
2023/05/07 03:49:05;;;;;;;8.70;7.80;;;;;21.10;100473.00;;;;2049036;28;20731;-73
2023/05/07 03:50:06;;;;;;;9.50;8.50;;;;;21.10;100466.00;;;;2059320;28;20709;-73
2023/05/07 03:51:06;;;;;;;9.13;8.23;;;;;21.10;100466.00;;;;2065958;28;20564;-73
2023/05/07 03:52:06;;;;;;;8.30;7.50;;;;;21.10;100462.00;;;;2062934;28;20243;-73
2023/05/07 03:53:07;;;;;;;8.47;7.57;;;;;21.10;100469.00;;;;2062013;28;20634;-73
2023/05/07 03:54:07;;;;;;;8.73;7.57;;;;;21.10;100464.00;;;;2046006;28;20561;-73
2023/05/07 03:55:08;;;;;;;8.47;7.67;;;;;21.10;100471.00;;;;2055838;28;20223;-73
2023/05/07 03:56:08;;;;;;;8.83;8.03;;;;;21.10;100467.00;;;;2073166;28;20225;-73
2023/05/07 03:57:09;;;;;;;8.90;8.00;;;;;21.10;100474.00;;;;2074693;28;20229;-73
2023/05/07 03:58:09;;;;;;;7.13;6.43;;;;;21.10;100476.00;;;;2057044;28;20218;-73
2023/05/07 03:59:09;;;;;;;8.57;7.70;;;;;21.10;100471.00;;;;2064109;28;20225;-73
2023/05/07 04:00:10;;;;;;;8.50;7.53;;;;;21.10;100471.00;;;;2063597;28;20215;-73
2023/05/07 04:01:11;;;;;;;6.47;5.88;;;;;21.10;100471.00;;;;2063699;28;20680;-73
2023/05/07 04:02:12;;;;;;;9.13;7.70;;;;;21.10;100469.00;;;;2060865;28;20223;-73
2023/05/07 04:03:12;;;;;;;8.47;7.60;;;;;21.10;100467.00;;;;2041422;28;20464;-73
2023/05/07 04:04:13;;;;;;;8.40;7.60;;;;;21.10;100476.00;;;;2055409;28;20763;-73
2023/05/07 04:05:14;;;;;;;8.77;7.87;;;;;21.10;100467.00;;;;2059831;28;20944;-73
2023/05/07 04:06:16;;;;;;;7.53;6.75;;;;;21.10;100468.00;;;;2058938;28;20219;-73
2023/05/07 04:07:16;;;;;;;7.72;6.93;;;;;21.10;100481.00;;;;2051934;28;20614;-73
2023/05/07 04:08:17;;;;;;;7.30;6.33;;;;;21.10;100479.00;;;;2051536;28;20223;-73
2023/05/07 04:09:17;;;;;;;8.03;7.23;;;;;21.10;100474.00;;;;2058162;28;20247;-73
2023/05/07 04:10:17;;;;;;;8.73;7.80;;;;;21.10;100482.00;;;;2061878;28;20214;-73
2023/05/07 04:11:18;;;;;;;8.23;7.37;;;;;21.10;100476.00;;;;2059700;28;20223;-73
2023/05/07 04:12:18;;;;;;;8.30;7.50;;;;;21.10;100485.00;;;;2065334;28;20237;-73
2023/05/07 04:13:18;;;;;;;7.67;6.97;;;;;21.10;100483.00;;;;2053452;28;20587;-73
2023/05/07 04:14:19;;;;;;;6.87;6.27;;;;;21.10;100488.00;;;;2060560;28;20213;-73
2023/05/07 04:15:19;;;;;;;8.03;7.23;;;;;21.10;100485.00;;;;2064110;28;20211;-73
2023/05/07 04:16:20;;;;;;;6.57;5.97;;;;;21.10;100478.00;;;;2062170;28;20220;-73
2023/05/07 04:17:20;;;;;;;7.57;6.77;;;;;21.10;100479.00;;;;2058453;28;20261;-73
2023/05/07 04:18:21;;;;;;;7.70;6.90;;;;;21.10;100482.00;;;;2054723;28;20222;-73
2023/05/07 04:19:21;;;;;;;9.60;7.50;;;;;21.10;100485.00;;;;2065585;28;20257;-73
2023/05/07 04:20:21;;;;;;;7.60;6.90;;;;;21.00;100479.00;;;;2058366;28;20223;-73
2023/05/07 04:21:22;;;;;;;7.80;6.90;;;;;21.10;100482.00;;;;2061408;28;20535;-73
2023/05/07 04:22:22;;;;;;;7.47;6.77;;;;;21.10;100487.00;;;;2063505;28;20688;-73
2023/05/07 04:23:22;;;;;;;7.27;6.57;;;;;21.10;100489.00;;;;2052895;28;20215;-73
2023/05/07 04:24:23;;;;;;;8.30;6.60;;;;;21.00;100486.00;;;;2065373;28;20281;-73
2023/05/07 04:25:26;;;;;;;6.70;6.10;;;;;21.10;100491.00;;;;2063887;28;20265;-73
2023/05/07 04:26:26;;;;;;;7.22;6.53;;;;;21.10;100487.00;;;;2060696;28;20206;-73
2023/05/07 04:27:27;;;;;;;7.40;6.47;;;;;21.10;100486.00;;;;2057877;28;20242;-73
2023/05/07 04:28:28;;;;;;;8.18;7.35;;;;;21.00;100493.00;;;;2053316;28;20242;-73
2023/05/07 04:29:28;;;;;;;7.30;6.53;;;;;21.10;100491.00;;;;2068506;28;20234;-73
2023/05/07 04:30:28;;;;;;;7.60;6.90;;;;;21.10;100487.00;;;;2066864;28;20217;-74
2023/05/07 04:31:32;;;;;;;8.37;7.57;;;;;21.10;100494.00;;;;2071070;28;20694;-74
2023/05/07 04:32:32;;;;;;;6.35;5.75;;;;;21.10;100498.00;;;;2064911;28;20214;-74
2023/05/07 04:33:32;;;;;;;6.80;6.10;;;;;21.10;100492.00;;;;2052565;28;20667;-74
2023/05/07 04:34:33;;;;;;;6.80;6.20;;;;;21.10;100488.00;;;;2065809;28;20218;-74
2023/05/07 04:35:33;;;;;;;7.50;6.70;;;;;21.00;100494.00;;;;2059958;28;20269;-74
2023/05/07 04:36:33;;;;;;;6.50;5.90;;;;;21.10;100496.00;;;;2063830;28;20210;-74
2023/05/07 04:37:34;;;;;;;6.77;6.17;;;;;21.10;100495.00;;;;2063172;28;20238;-74
2023/05/07 04:38:35;;;;;;;7.87;6.70;;;;;21.10;100495.00;;;;2053497;28;20225;-74
2023/05/07 04:39:36;;;;;;;6.75;6.03;;;;;21.10;100493.00;;;;2068064;28;20880;-74
2023/05/07 04:40:36;;;;;;;7.40;6.40;;;;;21.00;100493.00;;;;2060696;28;20214;-74
2023/05/07 04:41:37;;;;;;;6.97;6.27;;;;;21.10;100494.00;;;;2057026;28;20594;-74
2023/05/07 04:42:37;;;;;;;6.63;5.80;;;;;21.10;100492.00;;;;2061165;28;20210;-74
2023/05/07 04:43:37;;;;;;;6.90;6.20;;;;;21.10;100494.00;;;;2054877;28;20211;-74
2023/05/07 04:44:38;;;;;;;6.27;5.67;;;;;21.10;100501.00;;;;2063139;28;20277;-74
2023/05/07 04:45:41;;;;;;;7.10;6.40;;;;;21.10;100493.00;;;;2063004;28;20579;-74
2023/05/07 04:46:41;;;;;;;6.00;5.40;;;;;21.10;100499.00;;;;2063951;28;20222;-74
2023/05/07 04:47:41;;;;;;;5.80;5.30;;;;;21.10;100498.00;;;;2062847;28;20218;-74
2023/05/07 04:48:42;;;;;;;6.00;5.30;;;;;21.10;100496.00;;;;2057366;28;20275;-74
2023/05/07 04:49:42;;;;;;;6.30;5.70;;;;;21.10;100491.00;;;;2065314;28;20272;-73
2023/05/07 04:50:42;;;;;;;6.50;5.67;;;;;21.10;100495.00;;;;2068634;28;20218;-73
2023/05/07 04:51:43;;;;;;;5.90;5.30;;;;;21.10;100502.00;;;;2070859;28;20217;-73
2023/05/07 04:52:43;;;;;;;6.80;5.97;;;;;21.00;100503.00;;;;2063051;28;20637;-73
2023/05/07 04:53:43;;;;;;;5.93;5.33;;;;;21.10;100498.00;;;;2055201;28;20289;-73
2023/05/07 04:54:44;;;;;;;6.53;5.87;;;;;21.00;100503.00;;;;2060310;28;20211;-73